Time;durP1;ratioP1;P1;durP2;ratioP2;P2;SDS_P1;SDS_P2;PMS_P1;PMS_P2;Temp;Humidity;BMP_temperature;BMP_pressure;BME280_temperature;BME280_humidity;BME280_pressure;Samples;Min_cycle;Max_cycle;Signal;HPM_P1;HPM_P2
2022/01/26 00:07:10;;;;;;;17.47;12.30;;;-0.40;96.30;;;;;;5116175;28;20406;-76
2022/01/26 00:09:36;;;;;;;18.43;12.07;;;-0.30;96.30;;;;;;5106914;28;20416;-76
2022/01/26 00:12:01;;;;;;;19.97;12.03;;;-0.40;96.30;;;;;;5095285;28;20337;-76
2022/01/26 00:14:27;;;;;;;17.40;10.63;;;-0.40;96.30;;;;;;5095040;28;20169;-76
2022/01/26 00:16:53;;;;;;;22.37;10.90;;;-0.40;96.30;;;;;;5094051;28;20175;-76
2022/01/26 00:19:22;;;;;;;16.10;11.07;;;-0.40;96.30;;;;;;5094164;28;20198;-77
2022/01/26 00:21:52;;;;;;;12.23;9.37;;;-0.40;96.30;;;;;;5095515;28;20201;-76
2022/01/26 00:27:09;;;;;;;13.30;7.90;;;-0.40;96.30;;;;;;5095341;28;20415;-77
2022/01/26 00:29:38;;;;;;;12.00;8.97;;;-0.50;96.30;;;;;;5092759;28;20476;-76
2022/01/26 00:43:02;;;;;;;14.10;8.90;;;-0.50;96.30;;;;;;5095091;28;20772;-77
2022/01/26 00:45:34;;;;;;;12.53;9.87;;;-0.50;96.30;;;;;;5093069;28;20428;-76
2022/01/26 00:48:06;;;;;;;14.87;9.93;;;-0.50;96.30;;;;;;5094551;28;20903;-76
2022/01/26 00:50:34;;;;;;;14.40;9.03;;;-0.50;96.30;;;;;;5093053;28;20416;-77
2022/01/26 00:53:00;;;;;;;12.93;8.23;;;-0.50;96.30;;;;;;5094565;28;20494;-77
2022/01/26 00:55:26;;;;;;;11.87;8.27;;;-0.50;96.30;;;;;;5094081;28;20404;-77
2022/01/26 00:57:51;;;;;;;13.17;7.40;;;-0.50;96.30;;;;;;5094542;28;20469;-76
2022/01/26 05:02:19;;;;;;;7.67;6.77;;;-0.80;96.30;;;;;;5122878;23;20529;-76
2022/01/26 05:04:44;;;;;;;11.10;5.70;;;-0.80;96.30;;;;;;5007969;28;20416;-74
2022/01/26 05:07:10;;;;;;;5.73;4.00;;;-0.80;96.30;;;;;;4993168;28;20236;-74
2022/01/26 05:09:36;;;;;;;4.07;3.67;;;-0.90;96.30;;;;;;4994438;28;20665;-76
2022/01/26 05:12:02;;;;;;;4.90;3.93;;;;;;;;;;4994407;28;20189;-74
2022/01/26 05:14:28;;;;;;;5.40;4.30;;;-0.80;96.30;;;;;;5010153;28;20506;-75
2022/01/26 05:16:54;;;;;;;5.97;4.37;;;-0.80;96.30;;;;;;5013861;28;20507;-77
2022/01/26 05:19:19;;;;;;;9.17;4.80;;;-0.80;96.30;;;;;;5012371;28;20620;-75
2022/01/26 05:21:45;;;;;;;4.40;3.43;;;-0.90;96.30;;;;;;5013736;28;20214;-75
2022/01/26 05:24:11;;;;;;;5.27;3.77;;;-0.90;96.30;;;;;;5013701;28;20532;-76
2022/01/26 05:26:40;;;;;;;3.80;3.40;;;-0.90;96.30;;;;;;5011877;28;20177;-76
2022/01/26 05:29:07;;;;;;;4.00;3.00;;;-0.80;96.30;;;;;;5012337;28;20510;-76
2022/01/26 05:31:33;;;;;;;4.47;4.07;;;-0.80;96.30;;;;;;5013043;28;20438;-76
2022/01/26 05:33:59;;;;;;;6.93;4.73;;;-0.90;96.30;;;;;;4993819;28;20417;-74
2022/01/26 05:36:25;;;;;;;8.67;5.00;;;-0.90;96.30;;;;;;5008192;28;20467;-74
2022/01/26 05:38:51;;;;;;;10.20;4.80;;;-0.90;96.30;;;;;;5013205;28;20192;-75
2022/01/26 05:41:17;;;;;;;6.13;4.37;;;-0.90;96.30;;;;;;5005739;28;20445;-75
2022/01/26 05:43:43;;;;;;;8.70;5.00;;;-0.90;96.30;;;;;;5000503;28;20204;-76
2022/01/26 05:46:14;;;;;;;5.87;4.60;;;-0.90;96.30;;;;;;5005933;28;20176;-76
2022/01/26 05:48:44;;;;;;;6.50;4.40;;;-0.90;96.30;;;;;;5003164;28;20412;-75
2022/01/26 05:51:11;;;;;;;4.80;4.03;;;-0.80;96.30;;;;;;5012985;28;20970;-75
2022/01/26 05:53:37;;;;;;;6.30;4.07;;;-0.90;96.30;;;;;;5013132;28;20416;-74
2022/01/26 05:56:03;;;;;;;4.33;3.60;;;-0.90;96.30;;;;;;5012464;28;20428;-75
2022/01/26 05:58:30;;;;;;;6.70;3.50;;;-0.90;96.30;;;;;;5013032;28;20503;-76
2022/01/26 06:00:58;;;;;;;6.33;4.53;;;-1.00;96.30;;;;;;5011974;28;20467;-74
2022/01/26 06:03:24;;;;;;;5.00;3.70;;;-1.00;96.30;;;;;;5011834;28;20848;-75
2022/01/26 06:05:50;;;;;;;6.30;4.67;;;-1.00;96.30;;;;;;5012326;28;20498;-75
2022/01/26 06:08:15;;;;;;;3.80;3.43;;;-1.00;96.30;;;;;;5013008;28;20175;-76
2022/01/26 07:23:38;;;;;;;5.60;3.60;;;-1.00;96.30;;;;;;5016328;28;20391;-76
2022/01/26 07:26:04;;;;;;;4.60;3.70;;;-1.10;96.30;;;;;;5014149;28;20419;-76
2022/01/26 07:28:34;;;;;;;6.13;4.70;;;-1.00;96.30;;;;;;5014821;28;20177;-76
2022/01/26 07:31:01;;;;;;;5.23;3.40;;;-1.00;96.30;;;;;;5014778;28;20192;-76
2022/01/26 07:33:27;;;;;;;6.63;5.30;;;-1.00;96.30;;;;;;5016657;28;20478;-76
2022/01/26 07:35:52;;;;;;;11.57;5.40;;;-1.00;96.30;;;;;;5005462;28;20841;-77
2022/01/26 07:38:18;;;;;;;7.80;5.27;;;-1.00;96.30;;;;;;4996128;28;20177;-78
2022/01/26 07:40:45;;;;;;;5.30;4.40;;;-1.00;96.30;;;;;;4994703;28;20248;-75
2022/01/26 07:43:10;;;;;;;8.83;4.47;;;-1.10;96.30;;;;;;4994849;28;20492;-76
2022/01/26 07:45:36;;;;;;;6.93;4.33;;;-1.10;96.30;;;;;;4994526;28;20508;-75
2022/01/26 07:48:02;;;;;;;9.20;5.03;;;-1.00;96.30;;;;;;5003724;28;20176;-75
2022/01/26 07:50:28;;;;;;;4.83;4.00;;;-1.00;96.30;;;;;;5015394;28;20176;-75
2022/01/26 07:52:53;;;;;;;8.13;5.70;;;-0.90;96.30;;;;;;5014264;28;20408;-75
2022/01/26 07:55:21;;;;;;;12.33;5.13;;;-0.90;96.30;;;;;;5015148;28;20173;-75
2022/01/26 07:57:49;;;;;;;6.40;4.83;;;-0.90;96.30;;;;;;5015443;28;20168;-77
2022/01/26 08:00:15;;;;;;;7.27;4.83;;;-1.00;96.30;;;;;;5015064;28;20459;-75
2022/01/26 08:02:42;;;;;;;7.10;4.43;;;-1.00;96.30;;;;;;5015305;28;20867;-77
2022/01/26 08:05:08;;;;;;;8.57;5.17;;;-1.00;96.30;;;;;;5013836;28;20439;-77
2022/01/26 08:07:34;;;;;;;7.83;5.60;;;-0.90;96.30;;;;;;5013981;28;20404;-76
2022/01/26 08:10:00;;;;;;;9.77;5.80;;;-0.90;96.30;;;;;;5015224;28;20408;-77
2022/01/26 08:12:25;;;;;;;7.80;5.73;;;-0.90;96.30;;;;;;5013761;28;20542;-77
2022/01/26 08:14:51;;;;;;;8.73;5.20;;;-0.90;96.30;;;;;;5013634;28;20235;-75
2022/01/26 08:17:16;;;;;;;9.93;5.17;;;-0.90;96.30;;;;;;5013573;28;20267;-76
2022/01/26 08:19:42;;;;;;;8.20;5.40;;;-0.80;96.30;;;;;;5014997;28;20203;-76
2022/01/26 08:22:08;;;;;;;7.93;5.30;;;-0.80;96.30;;;;;;5013608;28;20317;-76
2022/01/26 08:24:34;;;;;;;8.40;5.20;;;-0.80;96.30;;;;;;5013904;28;20173;-77
2022/01/26 08:27:08;;;;;;;9.07;5.70;;;-0.80;96.30;;;;;;5015197;28;20457;-77
2022/01/26 08:29:53;;;;;;;7.90;5.17;;;-0.80;96.30;;;;;;5014042;28;20469;-78
2022/01/26 08:32:19;;;;;;;6.53;4.63;;;-0.90;96.30;;;;;;5014344;28;20927;-77
2022/01/26 08:34:44;;;;;;;8.70;5.87;;;-0.80;96.30;;;;;;5012712;28;20506;-77
2022/01/26 08:37:10;;;;;;;10.10;5.73;;;-0.80;96.30;;;;;;4993810;28;20178;-78
2022/01/26 08:39:36;;;;;;;9.30;6.53;;;-0.80;96.30;;;;;;4993852;28;20258;-78
2022/01/26 08:42:05;;;;;;;8.50;6.00;;;-0.80;96.30;;;;;;4993475;28;20351;-78
2022/01/26 08:44:31;;;;;;;6.30;4.90;;;-0.80;96.30;;;;;;5000038;28;20427;-78
2022/01/26 08:46:57;;;;;;;9.13;4.87;;;-0.80;96.30;;;;;;5014388;28;20487;-77
2022/01/26 08:49:22;;;;;;;9.17;5.90;;;-0.80;96.30;;;;;;5014391;28;20570;-78
2022/01/26 08:51:50;;;;;;;9.67;5.70;;;-0.80;96.30;;;;;;5014689;28;20291;-78
2022/01/26 08:54:16;;;;;;;7.83;4.60;;;-0.90;96.30;;;;;;5010416;28;20428;-77
2022/01/26 08:56:42;;;;;;;6.80;4.27;;;-0.70;96.30;;;;;;5013878;28;20408;-78
2022/01/26 08:59:07;;;;;;;6.53;4.67;;;-0.70;96.30;;;;;;5012903;28;20482;-77
2022/01/26 09:01:33;;;;;;;5.57;3.90;;;-0.70;96.30;;;;;;5014202;28;20197;-77
2022/01/26 09:03:58;;;;;;;8.03;5.17;;;-0.80;96.30;;;;;;5012842;28;20177;-77
2022/01/26 09:06:24;;;;;;;5.40;3.57;;;-0.80;96.30;;;;;;5012624;28;20276;-78
2022/01/26 09:09:00;;;;;;;5.13;3.30;;;-0.70;96.30;;;;;;5010688;28;20173;-78
2022/01/26 09:11:26;;;;;;;7.20;4.33;;;-0.70;96.30;;;;;;4994612;28;20557;-78
2022/01/26 09:13:57;;;;;;;4.70;3.17;;;-0.60;96.30;;;;;;4993138;28;20504;-76
2022/01/26 09:16:24;;;;;;;4.43;3.20;;;-0.60;96.30;;;;;;4992913;28;20181;-78
2022/01/26 09:18:54;;;;;;;4.87;3.03;;;-0.60;96.30;;;;;;5007064;28;20416;-77
2022/01/26 09:21:21;;;;;;;4.90;3.90;;;-0.60;96.30;;;;;;5012539;28;20863;-78
2022/01/26 09:23:47;;;;;;;5.87;4.07;;;-0.60;96.30;;;;;;5013760;28;20449;-78
2022/01/26 09:26:14;;;;;;;5.80;3.73;;;-0.50;96.30;;;;;;5012118;28;20904;-78
2022/01/26 09:28:39;;;;;;;8.57;4.63;;;-0.60;96.30;;;;;;4996873;28;20470;-78
2022/01/26 09:31:05;;;;;;;5.80;3.80;;;-0.60;96.30;;;;;;4992840;28;20523;-78
2022/01/26 09:33:30;;;;;;;6.80;3.77;;;-0.60;96.30;;;;;;4994093;28;20178;-77
2022/01/26 09:35:56;;;;;;;4.70;3.70;;;-0.60;96.30;;;;;;5002967;28;20216;-78
2022/01/26 09:38:22;;;;;;;4.97;3.33;;;-0.60;96.30;;;;;;5013535;28;20184;-78
2022/01/26 09:40:48;;;;;;;8.03;3.90;;;-0.60;96.30;;;;;;5012089;28;20294;-78
2022/01/26 09:43:16;;;;;;;6.13;4.10;;;-0.50;96.30;;;;;;5012085;28;20547;-78
2022/01/26 09:45:41;;;;;;;7.07;4.67;;;-0.50;96.30;;;;;;5011913;28;20420;-78
2022/01/26 09:48:08;;;;;;;7.60;4.53;;;-0.50;96.30;;;;;;5011991;28;20823;-77
2022/01/26 09:50:35;;;;;;;6.70;4.50;;;-0.60;96.30;;;;;;5013219;28;20193;-78
2022/01/26 09:53:00;;;;;;;4.90;3.50;;;-0.60;96.30;;;;;;5012077;28;21010;-78
2022/01/26 09:55:27;;;;;;;6.57;4.27;;;-0.60;96.30;;;;;;5013199;28;20494;-78
2022/01/26 09:57:58;;;;;;;6.97;4.70;;;-0.70;96.30;;;;;;5013274;28;20202;-78
2022/01/26 10:00:27;;;;;;;7.93;4.57;;;-0.70;96.30;;;;;;5011688;28;20500;-78
2022/01/26 10:03:02;;;;;;;5.30;3.60;;;-0.70;96.30;;;;;;5012922;28;20404;-76
2022/01/26 10:05:49;;;;;;;5.07;3.80;;;-0.70;96.30;;;;;;5012938;28;20465;-78
2022/01/26 10:19:03;;;;;;;8.37;5.00;;;-0.60;96.30;;;;;;5013146;28;20443;-78
2022/01/26 10:21:29;;;;;;;8.10;5.23;;;-0.60;96.30;;;;;;5011437;28;20436;-78
2022/01/26 10:23:57;;;;;;;8.07;4.20;;;-0.60;96.30;;;;;;5011584;28;20899;-78
2022/01/26 10:26:23;;;;;;;8.10;5.10;;;-0.50;96.30;;;;;;5012501;28;20618;-78
2022/01/26 10:28:50;;;;;;;8.17;4.67;;;-0.50;96.30;;;;;;5012690;28;20412;-78
2022/01/26 10:31:32;;;;;;;5.87;4.47;;;-0.50;96.30;;;;;;5011201;28;20204;-78
2022/01/26 10:34:06;;;;;;;3.83;3.30;;;-0.40;96.30;;;;;;5011077;28;20895;-78
2022/01/26 10:36:37;;;;;;;7.10;4.00;;;-0.40;96.30;;;;;;5002642;28;20491;-78
2022/01/26 10:39:26;;;;;;;4.93;3.67;;;-0.30;96.30;;;;;;5004837;28;20416;-78
2022/01/26 10:41:56;;;;;;;6.20;4.37;;;-0.40;96.30;;;;;;4998298;28;20432;-78
2022/01/26 10:44:44;;;;;;;6.60;4.57;;;-0.30;96.30;;;;;;5004897;28;20407;-78
2022/01/26 10:47:10;;;;;;;4.53;4.07;;;-0.40;96.30;;;;;;5004630;28;20822;-77
2022/01/26 10:52:27;;;;;;;6.60;4.13;;;-0.40;96.30;;;;;;5012252;28;20626;-78
2022/01/26 10:54:53;;;;;;;9.47;5.00;;;-0.40;96.30;;;;;;5012072;28;20474;-77
2022/01/26 10:57:18;;;;;;;6.27;5.30;;;-0.40;96.30;;;;;;4997957;28;20421;-78
2022/01/26 10:59:47;;;;;;;6.63;4.40;;;-0.50;96.30;;;;;;5004066;28;20197;-78
2022/01/26 11:02:13;;;;;;;11.03;4.73;;;-0.40;96.30;;;;;;5010890;28;20666;-78
2022/01/26 11:04:43;;;;;;;6.33;4.03;;;-0.40;96.30;;;;;;5011018;28;20494;-79
2022/01/26 11:07:10;;;;;;;5.70;4.57;;;-0.40;96.30;;;;;;5012510;28;20495;-79
2022/01/26 11:09:54;;;;;;;6.93;4.70;;;-0.40;96.30;;;;;;5002460;28;20436;-78
2022/01/26 11:12:31;;;;;;;7.20;5.10;;;-0.40;96.30;;;;;;4991361;28;20440;-78
2022/01/26 11:15:05;;;;;;;7.60;5.00;;;-0.40;96.30;;;;;;4992413;28;20413;-79
2022/01/26 11:17:38;;;;;;;6.40;4.70;;;-0.40;96.30;;;;;;4992470;28;20495;-78
2022/01/26 11:20:21;;;;;;;7.23;4.20;;;-0.30;96.30;;;;;;4992691;28;20888;-77
2022/01/26 11:22:55;;;;;;;6.70;5.07;;;-0.40;96.30;;;;;;4992636;28;20404;-79
2022/01/26 11:25:23;;;;;;;8.77;5.40;;;-0.40;96.30;;;;;;4991010;28;20427;-78
2022/01/26 11:27:50;;;;;;;7.23;5.33;;;-0.50;96.30;;;;;;4991304;28;20409;-78
2022/01/26 11:30:21;;;;;;;7.60;5.03;;;-0.50;96.30;;;;;;4992591;28;20892;-78
2022/01/26 11:33:14;;;;;;;5.87;5.07;;;-0.50;96.30;;;;;;4992679;28;20409;-78
2022/01/26 11:35:44;;;;;;;5.50;4.57;;;-0.50;96.30;;;;;;5000776;28;20458;-78
2022/01/26 11:47:21;;;;;;;6.23;3.67;;;-0.40;96.30;;;;;;5012232;28;20406;-77
2022/01/26 11:49:50;;;;;;;7.03;4.53;;;-0.40;96.30;;;;;;5010776;28;20415;-77
2022/01/26 11:52:21;;;;;;;4.87;4.00;;;-0.40;96.30;;;;;;5011982;28;20514;-77
2022/01/26 11:54:53;;;;;;;6.80;5.00;;;-0.40;96.30;;;;;;5011903;28;20470;-79
2022/01/26 11:57:21;;;;;;;6.60;4.67;;;-0.40;96.30;;;;;;5012017;28;20400;-77
2022/01/26 12:00:03;;;;;;;7.53;5.40;;;-0.40;96.30;;;;;;5012996;28;20462;-78
2022/01/26 12:05:16;;;;;;;12.93;4.73;;;-0.50;96.30;;;;;;5015630;28;20442;-77
2022/01/26 12:07:51;;;;;;;11.63;7.57;;;-0.60;96.30;;;;;;5014299;28;20979;-77
2022/01/26 12:12:58;;;;;;;10.47;7.30;;;-0.60;96.30;;;;;;5633558;23;21080;-75
2022/01/26 12:15:27;;;;;;;11.27;7.37;;;-0.50;96.30;;;;;;5015119;28;20454;-76
2022/01/26 12:18:03;;;;;;;12.33;6.93;;;-0.50;96.30;;;;;;5015316;28;20451;-75
2022/01/26 12:45:07;;;;;;;9.70;7.70;;;-0.70;96.30;;;;;;4995057;28;20906;-75
2022/01/26 12:47:33;;;;;;;11.87;8.10;;;-0.80;96.30;;;;;;4995068;28;20496;-75
2022/01/26 12:49:59;;;;;;;15.60;8.97;;;-0.80;96.30;;;;;;4995078;28;20659;-75
2022/01/26 12:52:25;;;;;;;12.60;8.70;;;-0.80;96.30;;;;;;4995090;28;20672;-76
2022/01/26 12:54:51;;;;;;;12.47;8.60;;;-0.80;96.30;;;;;;4993575;28;20485;-76
2022/01/26 12:57:16;;;;;;;12.97;8.13;;;-0.80;96.30;;;;;;4993651;28;20961;-76
2022/01/26 12:59:43;;;;;;;17.33;8.70;;;-0.80;96.30;;;;;;4993501;28;20288;-75
2022/01/26 13:02:09;;;;;;;10.00;6.87;;;-0.80;96.30;;;;;;4993457;28;20590;-75
2022/01/26 13:04:34;;;;;;;12.97;8.20;;;-0.80;96.30;;;;;;4993336;28;20413;-75
2022/01/26 13:07:00;;;;;;;13.40;7.07;;;-0.80;96.30;;;;;;4994672;28;20181;-75
2022/01/26 13:09:28;;;;;;;10.53;7.50;;;-0.80;96.30;;;;;;5009868;28;20184;-75
2022/01/26 13:11:56;;;;;;;12.37;8.03;;;-0.80;96.30;;;;;;5014003;28;20695;-75
2022/01/26 13:14:29;;;;;;;9.97;7.70;;;-0.90;96.30;;;;;;5012726;28;20448;-76
2022/01/26 13:17:03;;;;;;;12.07;7.67;;;-0.90;96.30;;;;;;5014135;28;20411;-76
2022/01/26 13:19:39;;;;;;;11.00;8.63;;;-0.90;96.30;;;;;;5014182;28;20468;-75
2022/01/26 13:24:54;;;;;;;12.73;9.17;;;-1.00;96.30;;;;;;5014081;28;20483;-75
2022/01/26 13:30:27;;;;;;;11.20;8.53;;;-1.00;96.30;;;;;;4995952;28;20495;-75
2022/01/26 13:40:49;;;;;;;10.43;7.30;;;-1.00;96.30;;;;;;4994215;28;20474;-78
2022/01/26 13:43:51;;;;;;;11.10;7.43;;;-1.00;96.30;;;;;;4993942;28;20767;-78
2022/01/26 13:52:05;;;;;;;11.30;8.27;;;-1.00;96.30;;;;;;4993979;28;20840;-78
2022/01/26 13:54:50;;;;;;;12.37;8.60;;;-1.00;96.30;;;;;;4992258;28;20479;-78
2022/01/26 13:57:41;;;;;;;13.67;7.60;;;-1.10;96.30;;;;;;4992399;28;20416;-78
2022/01/26 14:00:03;;;;;;;16.17;9.33;;;-1.10;96.30;;;;;;4993463;28;20456;-78
2022/01/26 14:02:32;;;;;;;11.50;8.27;;;-1.10;96.30;;;;;;4992788;28;20444;-78
2022/01/26 14:04:57;;;;;;;16.70;8.17;;;-1.20;96.30;;;;;;4993846;28;20463;-78
2022/01/26 14:07:23;;;;;;;16.73;9.20;;;-1.20;96.30;;;;;;4992668;28;20653;-78
2022/01/26 14:09:48;;;;;;;12.10;8.13;;;-1.20;96.30;;;;;;4992604;28;20209;-78
2022/01/26 14:12:17;;;;;;;18.60;9.43;;;-1.20;96.30;;;;;;4992575;28;20244;-78
2022/01/26 14:14:45;;;;;;;12.30;8.27;;;-1.10;96.30;;;;;;4992653;28;20249;-78
2022/01/26 14:17:24;;;;;;;15.20;10.00;;;-1.10;96.30;;;;;;4992574;28;20423;-78
2022/01/26 14:20:09;;;;;;;16.20;9.07;;;-1.20;96.30;;;;;;4992556;28;20444;-77
2022/01/26 14:25:17;;;;;;;23.70;10.87;;;-1.20;96.30;;;;;;5012979;28;20439;-77
2022/01/26 14:27:49;;;;;;;16.83;10.20;;;-1.30;96.30;;;;;;5013149;28;20399;-78
2022/01/26 14:30:37;;;;;;;20.33;10.20;;;-1.30;96.30;;;;;;5013293;28;20422;-77
2022/01/26 15:00:39;;;;;;;18.27;9.77;;;-1.30;96.30;;;;;;4993213;28;20994;-76
2022/01/26 15:29:54;;;;;;;18.67;9.70;;;-1.40;96.30;;;;;;4993559;28;20522;-77
2022/01/26 15:31:02;;;;;;;13.67;9.23;;;-1.50;96.30;;;;;;4992673;28;20486;-75
2022/01/26 15:33:31;;;;;;;16.50;9.70;;;-1.50;96.30;;;;;;4994545;28;20413;-75
2022/01/26 15:41:34;;;;;;;17.13;9.93;;;-1.50;96.30;;;;;;4996437;28;20522;-75
2022/01/26 16:08:11;;;;;;;20.23;11.97;;;-1.50;96.30;;;;;;4995368;28;20418;-74
2022/01/26 16:21:45;;;;;;;25.00;14.23;;;-1.50;96.30;;;;;;4995054;28;20467;-76
2022/01/26 16:27:47;;;;;;;26.93;15.07;;;-1.50;96.30;;;;;;4995495;28;20910;-76
2022/01/26 16:35:34;;;;;;;27.43;14.10;;;-1.50;96.30;;;;;;5000215;28;20489;-76
2022/01/26 16:38:23;;;;;;;30.87;17.90;;;-1.50;96.30;;;;;;5014701;28;20491;-76
2022/01/26 17:12:17;;;;;;;25.30;14.07;;;-1.50;96.30;;;;;;4994473;28;20947;-76
2022/01/26 17:25:34;;;;;;;22.70;13.60;;;-1.60;96.30;;;;;;5013514;28;20407;-76
2022/01/26 17:47:22;;;;;;;27.03;16.30;;;-1.70;96.30;;;;;;5013462;28;20427;-77
2022/01/26 18:04:01;;;;;;;22.57;12.20;;;-1.70;96.30;;;;;;4993268;28;20400;-77
2022/01/26 18:17:30;;;;;;;26.40;16.97;;;-1.60;96.30;;;;;;5007330;28;20506;-76
2022/01/26 20:27:22;;;;;;;26.27;14.23;;;-1.20;96.30;;;;;;5031726;28;20473;-76
2022/01/26 20:29:55;;;;;;;24.60;12.43;;;-1.20;96.30;;;;;;5033426;28;20473;-78
2022/01/26 20:32:21;;;;;;;21.97;13.10;;;-1.20;96.30;;;;;;5034523;28;20427;-78
2022/01/26 20:34:46;;;;;;;21.83;12.00;;;-1.10;96.30;;;;;;5033007;28;20751;-76
2022/01/26 20:37:12;;;;;;;29.17;14.00;;;-1.10;96.30;;;;;;5034574;28;20171;-75
2022/01/26 20:39:37;;;;;;;24.53;10.77;;;-1.10;96.30;;;;;;5034404;28;20605;-75
2022/01/26 20:42:03;;;;;;;26.33;13.50;;;-1.20;96.30;;;;;;5034440;28;20192;-75
2022/01/26 20:44:28;;;;;;;22.97;12.40;;;-1.20;96.30;;;;;;5032923;28;20667;-76
2022/01/26 20:46:54;;;;;;;19.73;11.67;;;-1.20;96.30;;;;;;5034435;28;20176;-74
2022/01/26 20:49:20;;;;;;;27.33;13.90;;;-1.20;96.30;;;;;;5033010;28;20551;-75
2022/01/26 20:51:46;;;;;;;20.00;7.90;;;-1.20;96.30;;;;;;5034380;28;20667;-75
2022/01/26 20:54:13;;;;;;;33.00;13.53;;;-1.10;96.30;;;;;;5034187;28;20426;-76
2022/01/26 20:56:39;;;;;;;24.67;12.30;;;-1.10;96.30;;;;;;5033878;28;20266;-75
2022/01/26 20:59:05;;;;;;;25.17;13.17;;;-1.10;96.30;;;;;;5034328;28;20423;-76
2022/01/26 21:01:31;;;;;;;20.67;10.30;;;-1.10;96.30;;;;;;5034057;28;20470;-76
2022/01/26 21:03:56;;;;;;;36.13;13.37;;;-1.10;96.30;;;;;;5032805;28;20203;-75
2022/01/26 21:06:22;;;;;;;24.70;11.33;;;-1.10;96.30;;;;;;5033937;28;20176;-77
2022/01/26 21:08:47;;;;;;;18.43;9.20;;;;;;;;;;5030897;28;20234;-76
2022/01/26 21:11:13;;;;;;;26.57;13.00;;;-1.10;96.30;;;;;;5014087;28;20201;-76
2022/01/26 21:13:39;;;;;;;24.20;11.67;;;-1.10;96.30;;;;;;5014117;28;20470;-77
2022/01/26 21:16:06;;;;;;;20.80;11.00;;;-1.10;96.30;;;;;;5012432;28;20428;-77
2022/01/26 21:18:34;;;;;;;22.20;8.80;;;-1.10;96.30;;;;;;5013867;28;20172;-76
2022/01/26 21:21:00;;;;;;;30.43;13.10;;;-1.10;96.30;;;;;;5013929;28;20468;-77
2022/01/26 21:23:27;;;;;;;29.70;13.20;;;-1.20;96.30;;;;;;5012635;28;20424;-76
2022/01/26 21:25:52;;;;;;;35.67;13.53;;;-1.10;96.30;;;;;;5013387;28;20439;-76
2022/01/26 21:28:18;;;;;;;25.67;10.50;;;-1.10;96.30;;;;;;5012399;28;20424;-77
2022/01/26 21:30:44;;;;;;;24.97;12.00;;;-1.10;96.30;;;;;;5013474;28;20232;-77
2022/01/26 21:33:12;;;;;;;31.10;13.23;;;-1.10;96.30;;;;;;5013635;28;20185;-77
2022/01/26 21:35:37;;;;;;;25.43;12.27;;;-1.10;96.30;;;;;;5020292;28;20180;-76
2022/01/26 21:38:03;;;;;;;32.20;13.60;;;-1.10;96.30;;;;;;5032192;28;20466;-78
2022/01/26 21:40:28;;;;;;;29.97;13.80;;;-1.10;96.30;;;;;;5031715;28;20335;-77
2022/01/26 21:42:54;;;;;;;28.47;12.50;;;-1.10;96.30;;;;;;5032120;28;20625;-78
2022/01/26 21:45:20;;;;;;;28.80;14.70;;;-1.10;96.30;;;;;;5025702;28;20181;-78
2022/01/26 21:47:46;;;;;;;33.87;14.60;;;-1.10;96.30;;;;;;5012822;28;20189;-79
2022/01/26 21:50:12;;;;;;;31.53;14.77;;;-1.10;96.30;;;;;;5012389;28;20502;-76
2022/01/26 21:52:38;;;;;;;26.60;13.53;;;-1.10;96.30;;;;;;5012137;28;20953;-76
2022/01/26 21:55:04;;;;;;;31.77;13.50;;;-1.10;96.30;;;;;;5013302;28;20416;-77
2022/01/26 21:57:30;;;;;;;28.53;14.10;;;-1.10;96.30;;;;;;5013323;28;20183;-77
2022/01/26 21:59:56;;;;;;;38.17;16.07;;;-1.10;96.30;;;;;;5013277;28;20542;-76
2022/01/26 22:02:22;;;;;;;29.90;15.23;;;-1.00;96.30;;;;;;5013168;28;20467;-77
2022/01/26 22:04:47;;;;;;;34.23;15.77;;;-1.00;96.30;;;;;;5013043;28;20617;-77
2022/01/26 22:07:13;;;;;;;25.87;12.60;;;-1.00;96.30;;;;;;5011947;28;20724;-76
2022/01/26 22:09:38;;;;;;;29.80;14.23;;;-1.00;96.30;;;;;;5011869;28;20173;-76
2022/01/26 22:12:05;;;;;;;27.70;14.30;;;-1.00;96.30;;;;;;5011817;28;20267;-76
2022/01/26 22:14:31;;;;;;;33.00;16.00;;;-1.10;96.30;;;;;;5011886;28;20615;-75
2022/01/26 22:16:57;;;;;;;45.00;15.90;;;-1.10;96.30;;;;;;5012933;28;20506;-76
2022/01/26 22:19:22;;;;;;;30.13;14.63;;;-1.10;96.30;;;;;;5011739;28;20452;-75
2022/01/26 22:21:48;;;;;;;27.63;13.23;;;-1.10;96.30;;;;;;5012960;28;20316;-76
2022/01/26 22:24:14;;;;;;;27.70;14.87;;;-1.10;96.30;;;;;;5012837;28;20537;-78
2022/01/26 22:26:40;;;;;;;30.67;14.97;;;-1.10;96.30;;;;;;5011497;28;20197;-75
2022/01/26 22:29:09;;;;;;;33.70;12.63;;;-1.10;96.30;;;;;;5012932;28;20177;-75
2022/01/26 22:31:35;;;;;;;33.43;14.50;;;-1.10;96.30;;;;;;5012818;28;20435;-75
2022/01/26 22:34:02;;;;;;;39.03;14.53;;;-1.10;96.30;;;;;;5012847;28;20896;-77
2022/01/26 22:36:28;;;;;;;32.80;15.10;;;-1.10;96.30;;;;;;5027470;28;20180;-76
2022/01/26 22:38:53;;;;;;;35.07;15.33;;;-1.10;96.30;;;;;;5032510;28;20422;-76
2022/01/26 22:41:19;;;;;;;34.73;13.93;;;-1.10;96.30;;;;;;5032243;28;20208;-76
2022/01/26 22:43:45;;;;;;;37.60;14.37;;;-1.20;96.30;;;;;;5031855;28;20259;-76
2022/01/26 22:46:10;;;;;;;31.07;13.73;;;-1.20;96.30;;;;;;5030825;28;20430;-78
2022/01/26 22:48:36;;;;;;;24.60;12.77;;;-1.20;96.30;;;;;;5032427;28;20183;-76
2022/01/26 22:51:05;;;;;;;24.20;12.87;;;-1.20;96.30;;;;;;5032277;28;20218;-76
2022/01/26 22:53:31;;;;;;;24.20;12.77;;;-1.20;96.30;;;;;;5031058;28;20477;-76
2022/01/26 22:55:57;;;;;;;31.57;13.50;;;-1.20;96.30;;;;;;5032218;28;20410;-75
2022/01/26 22:58:23;;;;;;;33.23;15.43;;;-1.20;96.30;;;;;;5031012;28;20489;-75
2022/01/26 23:03:25;;;;;;;21.77;12.40;;;-1.20;96.30;;;;;;5032614;28;20171;-76
2022/01/26 23:08:19;;;;;;;26.50;13.00;;;-1.20;96.30;;;;;;5032413;28;20191;-77
2022/01/26 23:10:45;;;;;;;26.97;12.90;;;-1.20;96.30;;;;;;5030722;28;20821;-75
2022/01/26 23:13:11;;;;;;;31.00;12.83;;;-1.30;96.30;;;;;;5032174;28;20204;-75
2022/01/26 23:15:36;;;;;;;27.30;12.30;;;-1.30;96.30;;;;;;5031810;28;20172;-75
2022/01/26 23:18:02;;;;;;;22.73;12.20;;;-1.30;96.30;;;;;;5030782;28;20200;-75
2022/01/26 23:20:27;;;;;;;32.30;14.80;;;-1.30;96.30;;;;;;5030613;28;20196;-75
2022/01/26 23:22:55;;;;;;;31.87;12.60;;;-1.30;96.30;;;;;;5031145;28;20180;-75
2022/01/26 23:25:33;;;;;;;27.73;13.50;;;-1.30;96.30;;;;;;5030447;28;20184;-75
2022/01/26 23:28:18;;;;;;;31.30;13.60;;;-1.30;96.30;;;;;;5030645;28;20407;-75
2022/01/26 23:30:53;;;;;;;27.70;12.67;;;-1.30;96.30;;;;;;5031899;28;20430;-78
